Time;durP1;ratioP1;P1;durP2;ratioP2;P2;SDS_P1;SDS_P2;PMS_P1;PMS_P2;Temp;Humidity;BMP_temperature;BMP_pressure;BME280_temperature;BME280_humidity;BME280_pressure;Samples;Min_cycle;Max_cycle;Signal;HPM_P1;HPM_P2
2021/11/29 00:01:07;;;;;;;5.75;3.60;;;15.40;48.80;;;;;;20735231;28;20289;-75
2021/11/29 00:11:08;;;;;;;3.90;2.45;;;15.40;49.00;;;;;;20718957;28;20499;-75
2021/11/29 00:21:11;;;;;;;6.45;3.80;;;15.30;49.00;;;;;;20716614;28;20041;-75
2021/11/29 00:31:12;;;;;;;6.47;3.53;;;15.30;49.10;;;;;;20716525;28;20472;-75
2021/11/29 00:41:12;;;;;;;5.32;3.72;;;15.30;49.20;;;;;;20649580;28;20042;-76
2021/11/29 00:51:13;;;;;;;6.27;4.00;;;15.20;49.20;;;;;;20634387;28;20042;-75
2021/11/29 01:01:14;;;;;;;5.60;3.05;;;15.20;49.30;;;;;;20634050;28;20089;-75
2021/11/29 01:11:14;;;;;;;6.28;3.20;;;15.10;49.40;;;;;;20633228;28;20497;-75
2021/11/29 01:21:15;;;;;;;4.20;3.03;;;15.10;49.50;;;;;;20632454;28;20439;-75
2021/11/29 01:31:15;;;;;;;5.95;3.20;;;15.10;49.60;;;;;;20647579;28;20133;-75
2021/11/29 01:41:16;;;;;;;4.30;2.92;;;15.10;49.70;;;;;;20630392;28;20121;-75
2021/11/29 01:51:17;;;;;;;5.55;3.03;;;15.00;49.70;;;;;;20646147;28;20069;-74
2021/11/29 02:01:19;;;;;;;4.82;2.75;;;15.00;49.80;;;;;;20629379;28;20026;-75
2021/11/29 02:11:21;;;;;;;5.38;2.85;;;14.90;49.80;;;;;;20645653;28;20047;-75
2021/11/29 02:21:27;;;;;;;4.20;2.70;;;14.90;49.90;;;;;;20644041;28;20037;-75
2021/11/29 02:31:33;;;;;;;3.92;2.45;;;14.90;50.00;;;;;;20627332;28;20038;-76
2021/11/29 02:41:33;;;;;;;4.23;2.70;;;14.90;50.10;;;;;;20628990;28;20045;-75
2021/11/29 02:51:39;;;;;;;4.05;2.20;;;14.80;50.20;;;;;;20673970;28;20120;-76
2021/11/29 03:01:40;;;;;;;3.20;2.28;;;14.80;50.30;;;;;;20707770;28;20061;-74
2021/11/29 03:11:40;;;;;;;4.32;2.55;;;14.80;50.30;;;;;;20706383;28;20054;-75
2021/11/29 03:21:41;;;;;;;3.35;1.92;;;14.70;50.40;;;;;;20690157;28;20026;-75
2021/11/29 03:31:42;;;;;;;3.53;2.20;;;14.70;50.50;;;;;;20689645;28;20472;-75
2021/11/29 03:41:43;;;;;;;2.60;1.70;;;14.60;50.50;;;;;;20722897;28;20284;-75
2021/11/29 03:51:43;;;;;;;2.75;1.65;;;14.60;50.60;;;;;;20705307;28;20621;-77
2021/11/29 04:01:44;;;;;;;2.53;1.60;;;14.60;50.70;;;;;;20715751;28;20571;-75
2021/11/29 04:11:45;;;;;;;2.17;1.63;;;14.60;50.90;;;;;;20702632;28;20089;-75
2021/11/29 04:21:46;;;;;;;2.85;1.65;;;14.60;50.90;;;;;;20701830;28;20034;-75
2021/11/29 04:31:47;;;;;;;2.80;1.58;;;14.50;50.90;;;;;;20718061;28;20121;-75
2021/11/29 04:41:47;;;;;;;2.27;1.37;;;14.50;51.00;;;;;;20685473;28;20117;-75
2021/11/29 04:51:48;;;;;;;2.33;1.55;;;14.40;51.00;;;;;;20715646;28;20347;-75
2021/11/29 05:01:49;;;;;;;1.33;1.00;;;14.40;51.20;;;;;;20713944;28;20057;-75
2021/11/29 05:11:49;;;;;;;1.60;1.10;;;14.40;51.20;;;;;;20727809;28;20042;-74
2021/11/29 05:21:50;;;;;;;1.58;1.05;;;15.20;49.80;;;;;;20697311;28;20494;-76
2021/11/29 05:31:50;;;;;;;1.83;0.98;;;16.30;47.60;;;;;;20713140;28;20041;-76
2021/11/29 05:41:51;;;;;;;2.17;1.20;;;17.40;45.50;;;;;;20701228;28;20092;-73
2021/11/29 05:51:53;;;;;;;2.25;1.10;;;18.70;43.00;;;;;;20692880;28;20041;-75
2021/11/29 06:01:53;;;;;;;1.23;1.00;;;19.60;41.00;;;;;;20730464;28;20073;-75
2021/11/29 06:11:54;;;;;;;1.73;0.85;;;20.10;39.80;;;;;;20711557;28;20124;-75
2021/11/29 06:21:54;;;;;;;1.75;1.08;;;20.20;39.20;;;;;;20710925;28;20033;-75
2021/11/29 06:31:55;;;;;;;1.30;0.85;;;20.40;38.80;;;;;;20711150;28;20038;-75
2021/11/29 06:41:56;;;;;;;1.48;1.15;;;20.50;38.40;;;;;;20684221;28;20128;-75
2021/11/29 06:51:58;;;;;;;1.40;1.00;;;19.60;39.60;;;;;;20692657;28;20477;-76
2021/11/29 07:01:58;;;;;;;1.20;1.10;;;18.50;41.30;;;;;;20705254;28;20405;-76
2021/11/29 07:11:59;;;;;;;1.58;1.05;;;17.60;43.00;;;;;;20706974;28;20049;-79
2021/11/29 07:21:59;;;;;;;1.00;0.90;;;16.90;44.20;;;;;;20689516;28;20041;-78
2021/11/29 07:32:00;;;;;;;1.70;0.80;;;16.50;45.10;;;;;;20697748;28;20551;-79
2021/11/29 07:42:02;;;;;;;1.13;0.82;;;16.20;46.10;;;;;;20741818;28;20038;-80
2021/11/29 07:52:08;;;;;;;0.85;0.60;;;16.10;46.30;;;;;;20723379;28;20041;-77
2021/11/29 08:02:10;;;;;;;1.52;0.95;;;16.00;46.60;;;;;;20742856;28;20038;-79
2021/11/29 08:12:11;;;;;;;1.58;1.00;;;15.90;46.80;;;;;;20724783;28;20179;-76
2021/11/29 08:22:13;;;;;;;2.03;1.27;;;15.90;46.90;;;;;;20722409;28;20144;-78
2021/11/29 08:32:16;;;;;;;1.98;1.10;;;15.90;47.00;;;;;;20737895;28;20042;-78
2021/11/29 08:42:30;;;;;;;2.85;1.25;;;15.90;47.00;;;;;;20705841;28;20040;-78
2021/11/29 08:53:01;;;;;;;2.22;1.23;;;15.90;47.00;;;;;;20728786;28;20046;-78
2021/11/29 09:03:06;;;;;;;1.90;1.27;;;16.00;47.10;;;;;;20708901;28;20540;-79
2021/11/29 09:13:07;;;;;;;1.17;0.90;;;15.90;47.00;;;;;;20720382;28;20129;-77
2021/11/29 09:23:09;;;;;;;3.33;1.30;;;15.90;47.10;;;;;;20702398;28;20034;-78
2021/11/29 09:33:09;;;;;;;2.33;1.80;;;15.90;47.20;;;;;;20733633;28;20038;-78
2021/11/29 09:43:12;;;;;;;1.77;1.20;;;15.80;47.20;;;;;;20684514;28;20034;-77
2021/11/29 09:53:14;;;;;;;3.20;1.15;;;15.80;47.10;;;;;;20722947;28;20476;-78
2021/11/29 10:03:16;;;;;;;3.70;2.30;;;15.80;47.20;;;;;;20672308;28;20042;-78
2021/11/29 10:13:17;;;;;;;3.30;2.00;;;15.80;47.40;;;;;;20708932;28;20049;-77
2021/11/29 10:23:26;;;;;;;7.57;2.22;;;15.70;47.30;;;;;;20725710;28;20389;-77
2021/11/29 10:33:28;;;;;;;3.15;1.80;;;15.70;47.40;;;;;;20709452;28;20128;-77
2021/11/29 10:43:39;;;;;;;3.42;1.90;;;15.70;47.40;;;;;;20725025;28;20028;-77
2021/11/29 10:53:51;;;;;;;7.15;2.10;;;15.70;47.60;;;;;;20692370;28;20046;-76
2021/11/29 11:03:56;;;;;;;3.50;1.70;;;15.60;47.60;;;;;;20708835;28;20619;-78
2021/11/29 11:14:21;;;;;;;2.63;1.55;;;15.70;47.50;;;;;;21104795;23;20038;-76
2021/11/29 11:24:28;;;;;;;3.40;1.50;;;16.70;45.90;;;;;;20645262;28;20131;-79
2021/11/29 11:34:35;;;;;;;3.10;2.13;;;17.60;44.10;;;;;;20657917;28;20104;-76
2021/11/29 11:44:38;;;;;;;3.38;1.98;;;18.70;41.90;;;;;;20646821;28;20619;-77
2021/11/29 11:54:40;;;;;;;3.67;2.08;;;19.60;40.30;;;;;;20643169;28;20060;-77
2021/11/29 12:04:41;;;;;;;3.88;2.10;;;19.90;39.30;;;;;;20702909;28;20042;-73
2021/11/29 12:14:42;;;;;;;3.60;1.77;;;20.10;38.80;;;;;;20703231;28;20041;-76
2021/11/29 12:25:13;;;;;;;3.85;2.20;;;20.30;38.50;;;;;;20703449;28;20064;-78
2021/11/29 12:35:14;;;;;;;3.33;2.05;;;20.20;38.20;;;;;;20719649;28;20188;-78
2021/11/29 12:45:16;;;;;;;3.15;1.60;;;19.20;39.60;;;;;;20717060;28;20034;-78
2021/11/29 12:55:19;;;;;;;2.28;1.63;;;18.20;41.20;;;;;;20717136;28;20388;-78
2021/11/29 13:05:23;;;;;;;1.98;1.48;;;17.40;42.80;;;;;;20724092;28;20468;-77
2021/11/29 13:15:25;;;;;;;3.20;1.90;;;17.00;43.80;;;;;;20731561;28;20042;-77
2021/11/29 13:25:25;;;;;;;2.80;1.83;;;16.80;44.40;;;;;;20648877;28;20031;-78
2021/11/29 13:35:26;;;;;;;2.78;1.98;;;16.60;44.70;;;;;;20635753;28;20038;-75
2021/11/29 13:45:32;;;;;;;1.98;1.23;;;16.60;45.00;;;;;;20638135;28;20042;-72
2021/11/29 13:55:38;;;;;;;2.93;1.43;;;16.60;45.10;;;;;;20713677;28;20034;-75
2021/11/29 14:05:44;;;;;;;2.77;1.37;;;16.60;45.10;;;;;;20701288;28;20069;-77
2021/11/29 14:15:54;;;;;;;4.80;1.83;;;16.60;45.30;;;;;;20714883;28;20053;-77
2021/11/29 14:25:55;;;;;;;2.97;1.75;;;16.60;45.30;;;;;;20726141;28;20025;-76
2021/11/29 14:36:28;;;;;;;2.00;1.50;;;16.50;45.20;;;;;;20715741;28;20484;-77
2021/11/29 14:46:33;;;;;;;2.50;1.48;;;16.50;45.30;;;;;;20719798;28;20119;-75
2021/11/29 14:56:33;;;;;;;4.20;2.15;;;16.50;45.20;;;;;;20697096;28;20034;-75
2021/11/29 15:06:34;;;;;;;4.65;2.33;;;16.60;45.30;;;;;;20728683;28;20045;-74
2021/11/29 15:16:36;;;;;;;150.93;14.03;;;16.40;45.90;;;;;;20712399;28;20088;-76
2021/11/29 15:26:39;;;;;;;112.15;13.93;;;16.30;46.40;;;;;;20710173;28;20303;-74
2021/11/29 15:36:39;;;;;;;39.55;6.95;;;16.30;46.50;;;;;;20712881;28;20038;-77
2021/11/29 15:46:44;;;;;;;8.75;3.95;;;16.60;46.70;;;;;;20712157;28;20056;-75
2021/11/29 15:56:45;;;;;;;12.45;2.90;;;17.50;45.30;;;;;;20721053;28;20046;-76
2021/11/29 16:06:47;;;;;;;7.03;2.75;;;18.50;43.40;;;;;;20724265;28;20121;-73
2021/11/29 16:16:47;;;;;;;5.13;2.53;;;19.00;41.80;;;;;;20740599;28;20041;-79
2021/11/29 16:26:48;;;;;;;6.93;3.70;;;19.50;40.80;;;;;;20717691;28;20181;-77
2021/11/29 16:36:48;;;;;;;7.47;5.03;;;19.70;39.50;;;;;;20721131;28;20046;-77
2021/11/29 16:46:49;;;;;;;4.75;2.83;;;19.00;39.70;;;;;;20704944;28;20069;-77
2021/11/29 16:56:49;;;;;;;4.90;2.90;;;18.10;41.10;;;;;;20720461;28;20113;-80
2021/11/29 17:06:50;;;;;;;5.85;2.63;;;17.30;42.60;;;;;;20721627;28;20034;-81
2021/11/29 17:16:51;;;;;;;3.72;2.83;;;16.60;44.00;;;;;;20696905;28;20050;-82
2021/11/29 17:26:51;;;;;;;6.10;3.27;;;16.30;45.00;;;;;;20711903;28;20396;-82
2021/11/29 17:36:52;;;;;;;5.10;2.95;;;16.10;45.70;;;;;;20721977;28;20042;-80
2021/11/29 17:46:53;;;;;;;5.53;3.30;;;15.90;46.00;;;;;;20710924;28;20121;-77
2021/11/29 17:56:54;;;;;;;4.00;2.40;;;16.00;46.30;;;;;;20716543;28;20034;-74
2021/11/29 18:07:01;;;;;;;4.65;3.03;;;16.00;46.40;;;;;;20683379;28;20188;-78
2021/11/29 18:17:02;;;;;;;5.28;2.67;;;16.10;46.40;;;;;;20696737;28;20038;-77
2021/11/29 18:27:03;;;;;;;5.03;3.20;;;16.00;46.30;;;;;;20694124;28;20416;-76
2021/11/29 18:37:07;;;;;;;5.07;2.58;;;16.10;46.20;;;;;;20692909;28;20034;-77
2021/11/29 18:47:09;;;;;;;4.15;3.22;;;16.00;46.20;;;;;;20701133;28;20080;-77
2021/11/29 18:57:10;;;;;;;3.17;2.10;;;16.00;46.30;;;;;;20688097;28;20046;-76
2021/11/29 19:07:11;;;;;;;2.60;2.00;;;16.10;46.30;;;;;;20723703;28;20034;-76
2021/11/29 19:17:12;;;;;;;3.20;2.10;;;16.10;46.40;;;;;;20675672;28;20392;-76
2021/11/29 19:27:13;;;;;;;3.22;2.17;;;16.00;46.40;;;;;;20688863;28;20025;-76
2021/11/29 19:37:13;;;;;;;2.90;1.95;;;16.00;46.40;;;;;;20704919;28;20038;-76
2021/11/29 19:47:14;;;;;;;3.33;2.10;;;16.00;46.60;;;;;;20703655;28;20077;-76
2021/11/29 19:57:15;;;;;;;4.07;2.08;;;16.00;46.50;;;;;;20705317;28;20045;-77
2021/11/29 20:07:16;;;;;;;4.80;2.40;;;15.90;46.50;;;;;;20720278;28;20046;-76
2021/11/29 20:17:18;;;;;;;3.38;1.90;;;15.90;46.70;;;;;;20702890;28;20050;-78
2021/11/29 20:27:19;;;;;;;6.53;2.47;;;15.90;46.70;;;;;;20701403;28;20038;-76
2021/11/29 20:37:22;;;;;;;3.22;2.13;;;15.80;46.60;;;;;;20700746;28;20034;-76
2021/11/29 20:47:24;;;;;;;4.82;2.25;;;15.90;46.70;;;;;;20700630;28;20030;-76
2021/11/29 20:57:25;;;;;;;2.13;1.75;;;15.90;46.70;;;;;;20731354;28;20038;-76
2021/11/29 21:07:28;;;;;;;3.25;2.15;;;15.80;46.70;;;;;;20716538;28;20057;-76
2021/11/29 21:17:30;;;;;;;4.15;2.53;;;15.80;46.70;;;;;;20698142;28;20042;-76
2021/11/29 21:27:31;;;;;;;3.80;2.33;;;15.70;46.80;;;;;;20714201;28;20041;-76
2021/11/29 21:37:32;;;;;;;3.40;1.92;;;15.70;46.90;;;;;;20681534;28;20424;-76
2021/11/29 21:47:32;;;;;;;2.73;1.83;;;15.70;47.10;;;;;;20696539;28;20030;-76
2021/11/29 21:57:33;;;;;;;2.80;1.88;;;15.70;47.00;;;;;;20696605;28;20284;-76
2021/11/29 22:07:33;;;;;;;3.72;2.33;;;15.60;47.00;;;;;;20694923;28;20499;-76
2021/11/29 22:17:34;;;;;;;3.33;1.90;;;15.60;47.10;;;;;;20710618;28;20117;-75
2021/11/29 22:27:35;;;;;;;4.03;2.42;;;15.60;47.10;;;;;;20710026;28;20452;-76
2021/11/29 22:37:36;;;;;;;6.40;3.15;;;15.50;47.10;;;;;;20709460;28;20081;-76
2021/11/29 22:47:37;;;;;;;4.28;2.20;;;15.50;47.30;;;;;;20692970;28;20033;-76
2021/11/29 22:57:37;;;;;;;3.78;2.22;;;15.50;47.40;;;;;;20692131;28;20041;-76
2021/11/29 23:07:39;;;;;;;3.50;2.20;;;15.40;47.40;;;;;;20703906;28;20057;-76
2021/11/29 23:17:40;;;;;;;4.47;2.17;;;15.40;48.10;;;;;;20724374;28;20042;-76
2021/11/29 23:27:41;;;;;;;3.75;2.35;;;15.40;47.60;;;;;;20723389;28;20026;-76
2021/11/29 23:37:41;;;;;;;3.55;2.45;;;15.40;47.60;;;;;;20732500;28;20365;-76
2021/11/29 23:47:51;;;;;;;3.97;2.08;;;15.30;47.70;;;;;;20689609;28;20164;-76
2021/11/29 23:57:52;;;;;;;6.18;2.50;;;15.30;47.70;;;;;;20708312;28;20110;-76
